Kulusuk Lufthavn, Greenland

7:08 AM WGT on December 03, 2016 (GMT -0300)
Kulusuk | | Change Station

Elev 90 ft 65.58 °N, 37.19 °W | Updated 7 seconds ago

Mostly Cloudy
Mostly Cloudy
25.9 °F
Feels Like 22 °F
N
3.5
Wind Variable Wind from NNE
Gusts 3.5 mph

Today
High -- | Low -- °F
--% Chance of Precip.
Yesterday
High -- | Low -- °F
Precip. -- in
Pressure 29.62 in
Visibility 6.2 miles
Clouds Few 700 ft
Mostly Cloudy 6600 ft
Mostly Cloudy 14000 ft
Windchill 22 °F
Dew Point 25 °F
Humidity 96%
Rainfall 0.00 in
Snow Depth Not available.
9:16 AM 1:20 PM
Waxing Crescent, 14% visible
METAR BGKK 030950Z AUTO 17006KT 110V190 9999NDV FEW007/// BKN066/// BKN140/// M04/M06 Q1003
Pressure 29.62 in
Visibility 6.2 miles
Clouds Few 700 ft
Mostly Cloudy 6600 ft
Mostly Cloudy 14000 ft
Windchill 22 °F
Dew Point 25 °F
Humidity 96%
Rainfall 0.00 in
Snow Depth Not available.
9:16 AM 1:20 PM
Waxing Crescent, 14% visible
METAR BGKK 030950Z AUTO 17006KT 110V190 9999NDV FEW007/// BKN066/// BKN140/// M04/M06 Q1003

10-Day Weather Forecast

×

Almanac

Astronomy

Dec. 03, 2016 Rise Set
Actual Time
Civil Twilight
Nautical Twilight
Astronomical Twilight
Moon
Length of Visible Light
Length of Day
Tomorrow will be .
, % of the Moon is Illuminated

Today's Extremes

Country Highs Country Lows

Community

WunderPhotos

Upload Photos

1,955,434 photos uploaded!

WunderBlog® & News

Nearby

Air Quality

  Air Quality AQ Index Pollutant
Not available.

Snow Depth

Station Depth Elevation

Earthquake Activity

City Distance Mag. Time & Date
Minimum magnitude displayed is 2.5.

Coastal Water Temperatures

Place Temperature

Stations

Nearby Weather Stations

Station Location Temp. Windchill Dew Point Humidity Wind Precip. Elev Updated Type